createdAt,value
2023-05-13T00:03:31.001Z,2.75
2023-05-13T00:13:52.360Z,3.30
2023-05-13T00:24:13.790Z,3.22
2023-05-13T00:34:35.103Z,3.53
2023-05-13T00:44:56.463Z,2.97
2023-05-13T00:55:18.335Z,3.53
2023-05-13T01:06:10.068Z,2.80
2023-05-13T01:16:32.024Z,2.38
2023-05-13T01:26:53.658Z,3.00
2023-05-13T01:37:15.210Z,2.83
2023-05-13T01:47:37.523Z,2.83
2023-05-13T01:57:59.065Z,2.35
2023-05-13T02:08:21.952Z,4.18
2023-05-13T02:18:43.430Z,3.30
2023-05-13T02:29:04.931Z,3.17
2023-05-13T02:39:25.683Z,3.67
2023-05-13T02:49:49.711Z,2.97
2023-05-13T03:00:12.294Z,3.47
2023-05-13T03:10:35.224Z,3.40
2023-05-13T03:20:56.655Z,3.53
2023-05-13T03:31:18.463Z,3.78
2023-05-13T03:41:40.158Z,3.55
2023-05-13T03:52:02.507Z,3.42
2023-05-13T04:02:24.597Z,3.47
2023-05-13T04:12:46.084Z,3.53
2023-05-13T04:23:07.334Z,3.22
2023-05-13T04:33:29.218Z,2.92
2023-05-13T04:43:50.561Z,3.58
2023-05-13T04:54:12.330Z,3.45
2023-05-13T05:04:34.175Z,3.25
2023-05-13T05:14:57.966Z,3.90
2023-05-13T05:25:19.403Z,3.95
2023-05-13T05:35:41.928Z,3.47
2023-05-13T05:56:30.127Z,4.65
2023-05-13T06:06:51.769Z,2.63
2023-05-13T06:17:15.067Z,2.38
2023-05-13T06:27:36.815Z,2.53
2023-05-13T06:37:57.805Z,2.55
2023-05-13T06:48:19.305Z,2.20
2023-05-13T06:58:40.907Z,2.95
2023-05-13T07:09:03.880Z,2.53
2023-05-13T07:19:28.501Z,3.33
2023-05-13T07:29:49.749Z,2.30
2023-05-13T07:40:11.295Z,2.45
2023-05-13T07:50:33.187Z,2.28
2023-05-13T08:00:54.324Z,2.20
2023-05-13T08:11:15.744Z,2.38
2023-05-13T08:21:37.077Z,2.65
2023-05-13T08:31:58.546Z,2.60
2023-05-13T08:42:22.253Z,2.35
2023-05-13T08:52:44.247Z,2.33
2023-05-13T09:03:05.654Z,3.10
2023-05-13T09:13:26.955Z,2.50
2023-05-13T09:23:47.841Z,10.23
2023-05-13T09:34:09.217Z,270.95
2023-05-13T09:44:32.592Z,505.63
2023-05-13T09:54:57.322Z,406.20
2023-05-13T10:05:18.822Z,356.10
2023-05-13T10:15:51.318Z,291.00
2023-05-13T10:26:12.851Z,261.77
2023-05-13T10:37:11.108Z,218.35
2023-05-13T10:47:33.968Z,196.27
2023-05-13T10:58:17.464Z,185.43
2023-05-13T11:08:50.364Z,167.55
2023-05-13T11:19:42.573Z,51.75
2023-05-13T11:30:06.701Z,60.63
2023-05-13T11:40:33.034Z,30.67
2023-05-13T11:50:57.123Z,48.97
2023-05-13T12:01:18.556Z,55.92
2023-05-13T12:11:40.053Z,52.70
2023-05-13T12:22:01.487Z,51.00
2023-05-13T12:32:25.904Z,52.95
2023-05-13T12:42:47.144Z,45.00
2023-05-13T12:53:08.636Z,41.45
2023-05-13T13:03:29.939Z,37.80
2023-05-13T13:13:51.415Z,34.20
2023-05-13T13:24:12.477Z,97.50
2023-05-13T13:34:33.841Z,8.35
2023-05-13T13:44:55.240Z,11.48
2023-05-13T13:55:16.892Z,9.13
2023-05-13T14:05:37.814Z,7.60
2023-05-13T14:15:59.237Z,80.13
2023-05-13T14:26:21.344Z,29.52
2023-05-13T14:36:42.689Z,5.05
2023-05-13T14:47:04.244Z,3.22
2023-05-13T14:57:26.167Z,6.40
2023-05-13T15:07:47.785Z,4.95
2023-05-13T15:18:09.256Z,3.33
2023-05-13T15:28:30.438Z,7.90
2023-05-13T15:38:51.641Z,8.95
2023-05-13T15:49:14.035Z,4.20
2023-05-13T15:59:35.984Z,3.50
2023-05-13T16:09:57.654Z,5.68
2023-05-13T16:20:19.216Z,4.30
2023-05-13T16:30:41.343Z,4.63
2023-05-13T16:41:03.813Z,4.30
2023-05-13T16:51:25.168Z,4.22
2023-05-13T17:01:46.653Z,4.32
2023-05-13T17:12:08.349Z,4.50
2023-05-13T17:22:29.717Z,3.70
2023-05-13T17:32:52.162Z,3.72
2023-05-13T17:43:13.794Z,4.63
2023-05-13T17:53:35.286Z,4.55
2023-05-13T18:03:58.145Z,3.83
2023-05-13T18:14:19.660Z,3.00
2023-05-13T18:24:40.938Z,2.95
2023-05-13T18:35:02.130Z,4.00
2023-05-13T18:45:23.655Z,3.35
2023-05-13T18:55:45.625Z,4.13
2023-05-13T19:06:07.916Z,2.40
2023-05-13T19:16:29.449Z,3.15
2023-05-13T19:26:50.822Z,6.55
2023-05-13T19:37:12.160Z,5.88
2023-05-13T19:47:34.704Z,5.95
2023-05-13T19:57:56.062Z,6.22
2023-05-13T20:08:17.173Z,6.43
2023-05-13T20:18:39.835Z,6.43
2023-05-13T20:29:02.292Z,6.15
2023-05-13T20:39:24.220Z,5.18
2023-05-13T20:49:45.726Z,6.55
2023-05-13T21:00:07.533Z,4.00
2023-05-13T21:10:29.190Z,6.82
2023-05-13T21:20:51.736Z,5.63
2023-05-13T21:31:13.217Z,4.88
2023-05-13T21:41:34.587Z,5.63
2023-05-13T21:51:55.607Z,5.03
2023-05-13T22:02:17.125Z,5.13
2023-05-13T22:12:38.592Z,3.42
2023-05-13T22:22:59.768Z,4.78
2023-05-13T22:33:21.421Z,4.25
2023-05-13T22:43:42.782Z,3.42
2023-05-13T22:54:04.183Z,3.95
2023-05-13T23:04:25.586Z,7.15
2023-05-13T23:14:46.923Z,4.18
2023-05-13T23:25:09.235Z,3.05
2023-05-13T23:35:31.592Z,4.70
2023-05-13T23:45:52.587Z,5.35
2023-05-13T23:56:13.884Z,4.15
